createdAt,value
2023-04-30T00:00:36.291Z,17.48
2023-04-30T00:03:04.783Z,15.70
2023-04-30T00:05:32.145Z,18.30
2023-04-30T00:07:59.024Z,17.40
2023-04-30T00:10:26.044Z,16.45
2023-04-30T00:12:53.153Z,17.48
2023-04-30T00:15:21.671Z,15.80
2023-04-30T00:17:49.184Z,17.60
2023-04-30T00:20:16.466Z,18.52
2023-04-30T00:22:44.021Z,16.52
2023-04-30T00:25:11.728Z,16.10
2023-04-30T00:27:40.784Z,16.48
2023-04-30T00:30:08.733Z,14.68
2023-04-30T00:32:36.257Z,16.38
2023-04-30T00:35:04.410Z,15.35
2023-04-30T00:37:32.104Z,15.95
2023-04-30T00:39:59.896Z,15.80
2023-04-30T00:42:26.795Z,15.57
2023-04-30T00:44:53.681Z,15.90
2023-04-30T00:47:20.906Z,16.70
2023-04-30T00:49:48.420Z,15.85
2023-04-30T00:52:15.681Z,15.50
2023-04-30T00:54:43.112Z,15.80
2023-04-30T00:57:13.882Z,16.30
2023-04-30T00:59:43.026Z,16.73
2023-04-30T01:02:10.687Z,16.05
2023-04-30T01:04:37.720Z,15.00
2023-04-30T01:07:05.666Z,15.80
2023-04-30T01:09:33.246Z,15.82
2023-04-30T01:12:22.098Z,14.52
2023-04-30T01:15:26.333Z,15.55
2023-04-30T01:18:09.681Z,15.55
2023-04-30T01:20:57.057Z,13.57
2023-04-30T01:23:35.613Z,14.90
2023-04-30T01:26:12.501Z,14.85
2023-04-30T01:28:43.994Z,14.60
2023-04-30T01:31:20.804Z,15.13
2023-04-30T01:33:53.580Z,13.43
2023-04-30T01:36:52.321Z,14.65
2023-04-30T01:39:56.562Z,14.43
2023-04-30T01:42:51.600Z,13.38
2023-04-30T01:45:37.084Z,13.38
2023-04-30T01:48:33.747Z,12.48
2023-04-30T01:51:22.525Z,13.85
2023-04-30T01:53:49.928Z,13.77
2023-04-30T01:56:33.110Z,12.40
2023-04-30T01:59:02.234Z,13.35
2023-04-30T02:01:31.586Z,15.40
2023-04-30T02:03:59.226Z,13.93
2023-04-30T02:06:31.700Z,12.88
2023-04-30T02:09:03.489Z,13.65
2023-04-30T02:11:30.981Z,16.38
2023-04-30T02:16:43.273Z,14.93
2023-04-30T02:19:11.539Z,15.77
2023-04-30T02:21:38.537Z,13.82
2023-04-30T02:24:06.308Z,15.52
2023-04-30T02:26:33.172Z,15.43
2023-04-30T02:29:00.231Z,15.27
2023-04-30T02:31:27.183Z,16.30
2023-04-30T02:33:54.628Z,15.88
2023-04-30T02:36:21.721Z,16.00
2023-04-30T02:38:48.850Z,16.15
2023-04-30T02:41:16.095Z,16.48
2023-04-30T02:43:44.278Z,14.65
2023-04-30T02:46:11.659Z,14.77
2023-04-30T02:48:39.220Z,16.20
2023-04-30T02:51:06.695Z,15.60
2023-04-30T02:53:33.882Z,15.35
2023-04-30T02:56:00.861Z,15.55
2023-04-30T02:58:27.887Z,15.73
2023-04-30T03:00:56.135Z,15.95
2023-04-30T03:03:24.646Z,16.95
2023-04-30T03:05:51.894Z,16.08
2023-04-30T03:08:18.785Z,15.48
2023-04-30T03:10:45.824Z,15.95
2023-04-30T03:13:12.958Z,17.92
2023-04-30T03:15:39.903Z,16.92
2023-04-30T03:18:07.573Z,19.27
2023-04-30T03:20:34.567Z,17.38
2023-04-30T03:23:01.505Z,19.02
2023-04-30T03:25:28.641Z,20.52
2023-04-30T03:27:56.810Z,20.48
2023-04-30T03:30:24.932Z,21.15
2023-04-30T03:32:51.843Z,20.60
2023-04-30T03:35:19.537Z,22.08
2023-04-30T03:37:47.025Z,22.00
2023-04-30T03:40:14.149Z,22.25
2023-04-30T03:42:41.129Z,22.83
2023-04-30T03:45:08.984Z,21.10
2023-04-30T03:47:37.098Z,21.35
2023-04-30T03:50:05.189Z,22.20
2023-04-30T03:52:35.079Z,22.48
2023-04-30T03:55:02.053Z,22.98
2023-04-30T03:57:29.553Z,22.58
2023-04-30T03:59:57.481Z,23.02
2023-04-30T04:02:24.878Z,23.50
2023-04-30T04:04:52.794Z,23.20
2023-04-30T04:07:20.272Z,22.77
2023-04-30T04:09:47.590Z,22.58
2023-04-30T04:12:14.431Z,23.92
2023-04-30T04:14:41.485Z,24.10
2023-04-30T04:17:09.124Z,23.27
2023-04-30T04:19:35.968Z,24.58
2023-04-30T04:22:03.071Z,23.52
2023-04-30T04:24:30.085Z,21.55
2023-04-30T04:26:58.293Z,21.80
2023-04-30T04:29:26.908Z,22.65
2023-04-30T04:31:56.077Z,23.05
2023-04-30T04:34:23.895Z,21.65
2023-04-30T04:36:51.541Z,23.17
2023-04-30T04:39:19.938Z,22.30
2023-04-30T04:41:47.095Z,23.83
2023-04-30T04:44:14.144Z,23.15
2023-04-30T04:46:44.445Z,23.52
2023-04-30T04:49:15.405Z,22.95
2023-04-30T04:51:42.996Z,22.35
2023-04-30T04:54:10.029Z,22.70
2023-04-30T04:56:37.144Z,22.45
2023-04-30T04:59:04.285Z,22.95
2023-04-30T05:01:31.748Z,23.70
2023-04-30T05:03:58.974Z,22.13
2023-04-30T05:06:27.594Z,21.15
2023-04-30T05:08:54.473Z,23.30
2023-04-30T05:11:22.921Z,23.55
2023-04-30T05:13:49.889Z,22.25
2023-04-30T05:16:17.595Z,21.35
2023-04-30T05:18:45.119Z,22.05
2023-04-30T05:21:12.372Z,22.38
2023-04-30T05:23:40.100Z,20.65
2023-04-30T05:26:07.232Z,21.08
2023-04-30T05:28:34.878Z,21.58
2023-04-30T05:31:02.114Z,22.20
2023-04-30T05:33:29.457Z,21.10
2023-04-30T05:35:56.420Z,21.20
2023-04-30T05:38:24.014Z,22.00
2023-04-30T05:40:50.926Z,21.27
2023-04-30T05:43:18.917Z,21.92
2023-04-30T05:45:46.159Z,20.98
2023-04-30T05:48:13.577Z,19.25
2023-04-30T05:50:40.852Z,21.25
2023-04-30T05:53:08.731Z,20.67
2023-04-30T05:55:36.392Z,19.08
2023-04-30T05:58:03.400Z,20.40
2023-04-30T06:00:30.545Z,19.90
2023-04-30T06:02:57.588Z,19.08
2023-04-30T06:05:24.745Z,18.80
2023-04-30T06:07:51.826Z,19.63
2023-04-30T06:10:18.984Z,17.80
2023-04-30T06:12:46.508Z,19.77
2023-04-30T06:15:13.651Z,17.67
2023-04-30T06:17:40.598Z,16.95
2023-04-30T06:20:08.612Z,17.00
2023-04-30T06:22:35.925Z,16.27
2023-04-30T06:25:03.706Z,15.07
2023-04-30T06:27:33.262Z,15.43
2023-04-30T06:30:01.144Z,15.48
2023-04-30T06:32:28.841Z,16.25
2023-04-30T06:34:56.669Z,16.48
2023-04-30T06:37:23.945Z,14.55
2023-04-30T06:39:51.716Z,16.20
2023-04-30T06:42:18.657Z,14.88
2023-04-30T06:44:47.806Z,15.00
2023-04-30T06:47:15.063Z,14.88
2023-04-30T06:49:42.224Z,14.80
2023-04-30T06:52:09.313Z,13.57
2023-04-30T06:54:36.439Z,12.85
2023-04-30T06:57:03.420Z,14.18
2023-04-30T06:59:30.504Z,13.70
2023-04-30T07:01:57.424Z,13.40
2023-04-30T07:04:24.708Z,13.05
2023-04-30T07:06:52.225Z,13.45
2023-04-30T07:09:19.418Z,13.38
2023-04-30T07:11:46.653Z,12.30
2023-04-30T07:14:13.646Z,12.30
2023-04-30T07:16:41.175Z,12.65
2023-04-30T07:19:08.498Z,11.82
2023-04-30T07:21:35.474Z,11.40
2023-04-30T07:24:02.508Z,12.55
2023-04-30T07:26:29.522Z,12.13
2023-04-30T07:28:57.390Z,11.38
2023-04-30T07:31:26.215Z,10.32
2023-04-30T07:33:55.349Z,10.48
2023-04-30T07:36:23.187Z,10.43
2023-04-30T07:38:50.315Z,10.98
2023-04-30T07:41:17.398Z,10.93
2023-04-30T07:43:44.694Z,11.05
2023-04-30T07:46:13.288Z,11.05
2023-04-30T07:48:40.376Z,9.27
2023-04-30T07:51:07.660Z,9.73
2023-04-30T07:53:34.952Z,9.93
2023-04-30T07:56:02.041Z,9.85
2023-04-30T07:58:29.031Z,9.18
2023-04-30T08:00:56.251Z,10.23
2023-04-30T08:03:32.772Z,10.10
2023-04-30T08:06:00.885Z,9.57
2023-04-30T08:08:28.243Z,8.18
2023-04-30T08:10:55.090Z,8.88
2023-04-30T08:13:22.329Z,9.55
2023-04-30T08:15:49.197Z,8.15
2023-04-30T08:18:16.425Z,7.82
2023-04-30T08:20:43.767Z,7.00
2023-04-30T08:23:11.091Z,7.78
2023-04-30T08:25:38.157Z,7.60
2023-04-30T08:28:08.365Z,7.43
2023-04-30T08:30:35.276Z,7.82
2023-04-30T08:33:02.638Z,7.30
2023-04-30T08:35:30.221Z,6.70
2023-04-30T08:37:57.271Z,7.55
2023-04-30T08:40:43.746Z,7.75
2023-04-30T08:43:11.976Z,7.75
2023-04-30T08:45:39.129Z,6.80
2023-04-30T08:48:16.486Z,6.78
2023-04-30T08:50:43.741Z,6.72
2023-04-30T08:53:13.242Z,5.28
2023-04-30T08:55:41.599Z,4.82
2023-04-30T08:58:10.769Z,5.97
2023-04-30T09:00:40.062Z,6.05
2023-04-30T09:03:09.073Z,6.47
2023-04-30T09:05:38.608Z,6.43
2023-04-30T09:08:08.975Z,5.43
2023-04-30T09:10:36.494Z,6.43
2023-04-30T09:13:09.314Z,4.25
2023-04-30T09:15:41.253Z,4.25
2023-04-30T09:18:18.538Z,3.47
2023-04-30T09:21:06.149Z,4.13
2023-04-30T09:23:33.223Z,3.63
2023-04-30T09:26:01.989Z,2.70
2023-04-30T09:28:29.278Z,2.60
2023-04-30T09:30:58.198Z,3.03
2023-04-30T09:33:26.197Z,2.35
2023-04-30T09:35:53.286Z,1.85
2023-04-30T09:38:32.990Z,1.88
2023-04-30T09:41:01.625Z,1.60
2023-04-30T09:43:30.255Z,1.88
2023-04-30T09:46:00.291Z,2.05
2023-04-30T09:48:29.094Z,2.45
2023-04-30T09:50:57.856Z,3.05
2023-04-30T09:53:24.945Z,2.85
2023-04-30T09:55:53.172Z,3.90
2023-04-30T09:58:20.381Z,3.78
2023-04-30T10:00:49.604Z,3.40
2023-04-30T10:03:17.731Z,3.10
2023-04-30T10:05:49.152Z,2.65
2023-04-30T10:08:30.967Z,2.78
2023-04-30T10:11:09.060Z,3.57
2023-04-30T10:13:44.142Z,4.03
2023-04-30T10:16:34.556Z,3.40
2023-04-30T10:19:08.267Z,4.18
2023-04-30T10:21:37.060Z,3.17
2023-04-30T10:24:06.403Z,2.75
2023-04-30T10:26:33.929Z,3.00
2023-04-30T10:29:01.489Z,2.38
2023-04-30T10:31:31.161Z,2.60
2023-04-30T10:34:35.772Z,3.10
2023-04-30T10:37:24.721Z,2.60
2023-04-30T10:39:52.270Z,2.75
2023-04-30T10:42:20.073Z,3.28
2023-04-30T10:44:48.726Z,2.97
2023-04-30T10:47:19.294Z,2.70
2023-04-30T10:49:50.348Z,2.67
2023-04-30T10:52:29.892Z,2.70
2023-04-30T10:54:57.554Z,2.38
2023-04-30T10:57:25.230Z,2.47
2023-04-30T11:00:19.190Z,2.67
2023-04-30T11:02:48.759Z,2.58
2023-04-30T11:05:18.414Z,1.80
2023-04-30T11:07:50.040Z,1.65
2023-04-30T11:10:21.731Z,1.58
2023-04-30T11:12:50.961Z,2.20
2023-04-30T11:15:21.202Z,1.90
2023-04-30T11:17:51.545Z,2.05
2023-04-30T11:20:25.139Z,1.70
2023-04-30T11:23:19.648Z,2.17
2023-04-30T11:25:56.267Z,2.00
2023-04-30T11:28:27.991Z,2.22
2023-04-30T11:31:01.268Z,1.85
2023-04-30T11:33:31.305Z,1.80
2023-04-30T11:36:04.632Z,2.97
2023-04-30T11:38:36.258Z,1.80
2023-04-30T11:41:05.317Z,1.92
2023-04-30T11:43:34.740Z,1.67
2023-04-30T11:46:09.942Z,2.15
2023-04-30T11:48:44.020Z,2.60
2023-04-30T11:51:24.477Z,2.30
2023-04-30T11:53:53.404Z,1.73
2023-04-30T11:56:22.886Z,2.15
2023-04-30T11:58:52.771Z,1.80
2023-04-30T12:01:27.726Z,2.20
2023-04-30T12:03:57.676Z,1.80
2023-04-30T12:06:28.305Z,1.80
2023-04-30T12:08:57.599Z,1.80
2023-04-30T12:11:30.453Z,1.50
2023-04-30T12:14:12.805Z,1.40
2023-04-30T12:16:52.816Z,2.00
2023-04-30T12:19:27.823Z,1.73
2023-04-30T12:21:55.425Z,1.63
2023-04-30T12:24:24.068Z,1.40
2023-04-30T12:26:54.258Z,1.40
2023-04-30T12:29:25.047Z,1.45
2023-04-30T12:31:53.562Z,1.30
2023-04-30T12:34:20.659Z,1.63
2023-04-30T12:36:53.928Z,1.30
2023-04-30T12:39:21.771Z,1.58
2023-04-30T12:41:49.993Z,1.20
2023-04-30T12:44:26.144Z,1.38
2023-04-30T12:46:57.499Z,1.17
2023-04-30T12:49:25.997Z,1.45
2023-04-30T12:52:08.822Z,1.42
2023-04-30T12:54:37.442Z,1.35
2023-04-30T12:57:09.131Z,1.60
2023-04-30T12:59:51.288Z,1.70
2023-04-30T13:02:18.955Z,1.38
2023-04-30T13:04:46.657Z,1.20
2023-04-30T13:07:13.740Z,1.20
2023-04-30T13:09:40.986Z,1.08
2023-04-30T13:12:08.773Z,1.15
2023-04-30T13:14:42.773Z,1.15
2023-04-30T13:17:12.421Z,1.30
2023-04-30T13:19:40.215Z,1.50
2023-04-30T13:22:07.443Z,1.00
2023-04-30T13:24:35.155Z,1.13
2023-04-30T13:27:03.159Z,1.20
2023-04-30T13:29:30.569Z,1.25
2023-04-30T13:31:58.265Z,1.15
2023-04-30T13:34:25.669Z,1.10
2023-04-30T13:36:53.583Z,1.08
2023-04-30T13:39:22.042Z,1.20
2023-04-30T13:41:52.412Z,0.90
2023-04-30T13:44:19.685Z,1.08
2023-04-30T13:47:04.633Z,1.00
2023-04-30T13:49:32.507Z,1.13
2023-04-30T13:51:59.621Z,1.10
2023-04-30T13:54:27.707Z,1.00
2023-04-30T13:56:56.172Z,1.33
2023-04-30T13:59:23.762Z,1.10
2023-04-30T14:01:50.966Z,1.10
2023-04-30T14:04:18.723Z,0.90
2023-04-30T14:06:46.462Z,1.20
2023-04-30T14:09:13.863Z,1.00
2023-04-30T14:11:43.106Z,1.10
2023-04-30T14:14:10.216Z,0.80
2023-04-30T14:16:37.719Z,0.70
2023-04-30T14:19:05.645Z,0.80
2023-04-30T14:21:34.817Z,0.88
2023-04-30T14:24:04.185Z,0.90
2023-04-30T14:26:32.173Z,0.80
2023-04-30T14:28:59.206Z,1.00
2023-04-30T14:31:27.080Z,0.90
2023-04-30T14:33:54.464Z,0.90
2023-04-30T14:36:21.630Z,0.68
2023-04-30T14:38:48.714Z,1.25
2023-04-30T14:41:16.905Z,1.20
2023-04-30T14:43:44.201Z,0.90
2023-04-30T14:46:12.967Z,0.73
2023-04-30T14:48:42.710Z,0.73
2023-04-30T14:51:09.856Z,0.70
2023-04-30T14:53:37.425Z,0.68
2023-04-30T14:56:04.763Z,0.80
2023-04-30T14:58:31.650Z,0.73
2023-04-30T15:00:58.955Z,0.90
2023-04-30T15:03:26.116Z,0.70
2023-04-30T15:05:53.278Z,0.90
2023-04-30T15:08:23.498Z,0.90
2023-04-30T15:10:50.512Z,0.98
2023-04-30T15:13:18.505Z,0.88
2023-04-30T15:15:47.753Z,0.68
2023-04-30T15:18:15.818Z,0.90
2023-04-30T15:20:46.024Z,0.60
2023-04-30T15:23:12.993Z,0.77
2023-04-30T15:25:42.317Z,0.75
2023-04-30T15:28:09.473Z,0.70
2023-04-30T15:30:37.238Z,0.95
2023-04-30T15:33:04.737Z,12.00
2023-04-30T15:35:32.011Z,1.90
2023-04-30T15:37:59.094Z,3.08
2023-04-30T15:40:26.439Z,1.58
2023-04-30T15:42:53.438Z,0.80
2023-04-30T15:45:20.887Z,0.95
2023-04-30T15:47:48.185Z,1.58
2023-04-30T15:50:15.650Z,2.80
2023-04-30T15:52:42.803Z,0.90
2023-04-30T15:55:10.500Z,1.10
2023-04-30T15:57:37.733Z,2.60
2023-04-30T16:00:05.990Z,3.42
2023-04-30T16:02:35.986Z,1.23
2023-04-30T16:05:04.067Z,23.27
2023-04-30T16:07:32.466Z,24.27
2023-04-30T16:10:01.426Z,50.83
2023-04-30T16:12:28.347Z,1.10
2023-04-30T16:14:55.220Z,2.88
2023-04-30T16:17:22.089Z,5.20
2023-04-30T16:19:49.111Z,2.83
2023-04-30T16:22:17.253Z,1.40
2023-04-30T16:24:44.704Z,1.45
2023-04-30T16:27:11.793Z,3.17
2023-04-30T16:29:38.667Z,1.50
2023-04-30T16:32:05.973Z,1.00
2023-04-30T16:34:33.237Z,0.73
2023-04-30T16:37:00.598Z,1.02
2023-04-30T16:39:27.849Z,1.17
2023-04-30T16:41:55.188Z,0.80
2023-04-30T16:44:22.964Z,4.43
2023-04-30T16:46:50.391Z,8.70
2023-04-30T16:49:17.438Z,4.90
2023-04-30T16:51:44.433Z,5.35
2023-04-30T16:54:14.881Z,12.85
2023-04-30T16:56:42.451Z,5.47
2023-04-30T16:59:09.615Z,1.73
2023-04-30T17:01:37.005Z,2.83
2023-04-30T17:04:04.829Z,2.08
2023-04-30T17:06:33.499Z,0.90
2023-04-30T17:09:01.167Z,0.80
2023-04-30T17:11:29.350Z,0.90
2023-04-30T17:13:57.167Z,0.75
2023-04-30T17:16:24.354Z,1.38
2023-04-30T17:18:51.224Z,0.93
2023-04-30T17:21:18.177Z,1.00
2023-04-30T17:23:45.934Z,1.15
2023-04-30T17:26:13.022Z,0.80
2023-04-30T17:28:39.920Z,0.98
2023-04-30T17:31:07.720Z,0.80
2023-04-30T17:33:35.008Z,0.85
2023-04-30T17:36:02.146Z,0.80
2023-04-30T17:38:32.422Z,0.80
2023-04-30T17:40:59.335Z,0.80
2023-04-30T17:43:26.818Z,0.82
2023-04-30T17:45:54.652Z,0.77
2023-04-30T17:48:22.580Z,0.90
2023-04-30T17:50:49.495Z,0.85
2023-04-30T17:53:16.575Z,0.90
2023-04-30T17:55:43.659Z,0.80
2023-04-30T17:58:11.569Z,0.90
2023-04-30T18:00:42.810Z,0.85
2023-04-30T18:03:10.422Z,0.75
2023-04-30T18:05:37.901Z,1.17
2023-04-30T18:08:06.322Z,1.00
2023-04-30T18:10:33.307Z,0.80
2023-04-30T18:13:00.971Z,1.30
2023-04-30T18:15:29.356Z,4.03
2023-04-30T18:17:56.448Z,6.72
2023-04-30T18:20:23.544Z,5.53
2023-04-30T18:22:50.727Z,4.20
2023-04-30T18:25:19.628Z,2.40
2023-04-30T18:27:49.705Z,2.88
2023-04-30T18:30:17.482Z,1.60
2023-04-30T18:32:44.770Z,1.20
2023-04-30T18:35:12.210Z,1.00
2023-04-30T18:37:39.604Z,1.10
2023-04-30T18:40:07.664Z,0.90
2023-04-30T18:42:35.098Z,1.67
2023-04-30T18:45:02.284Z,1.70
2023-04-30T18:47:30.616Z,1.23
2023-04-30T18:49:58.262Z,1.02
2023-04-30T18:52:25.600Z,1.15
2023-04-30T18:54:52.637Z,1.40
2023-04-30T18:57:19.998Z,1.52
2023-04-30T18:59:47.966Z,1.30
2023-04-30T19:02:15.761Z,1.20
2023-04-30T19:04:42.766Z,1.42
2023-04-30T19:07:10.640Z,1.17
2023-04-30T19:09:38.504Z,1.10
2023-04-30T19:12:06.744Z,1.40
2023-04-30T19:14:34.080Z,1.70
2023-04-30T19:17:01.396Z,1.50
2023-04-30T19:19:28.581Z,1.40
2023-04-30T19:21:55.935Z,1.30
2023-04-30T19:24:25.360Z,1.50
2023-04-30T19:26:52.606Z,1.25
2023-04-30T19:29:19.590Z,1.20
2023-04-30T19:31:46.899Z,1.52
2023-04-30T19:34:14.275Z,1.48
2023-04-30T19:36:50.379Z,1.83
2023-04-30T19:39:17.794Z,1.80
2023-04-30T19:41:45.028Z,1.38
2023-04-30T19:44:12.354Z,1.30
2023-04-30T19:46:39.484Z,1.30
2023-04-30T19:49:09.268Z,1.33
2023-04-30T19:51:36.735Z,1.48
2023-04-30T19:54:03.782Z,1.20
2023-04-30T19:56:32.483Z,1.20
2023-04-30T19:58:59.424Z,1.40
2023-04-30T20:01:26.423Z,1.30
2023-04-30T20:03:53.804Z,1.58
2023-04-30T20:06:21.608Z,1.30
2023-04-30T20:08:51.092Z,1.60
2023-04-30T20:11:18.488Z,1.25
2023-04-30T20:13:45.620Z,2.15
2023-04-30T20:16:12.783Z,3.30
2023-04-30T20:18:43.102Z,3.50
2023-04-30T20:21:10.354Z,3.05
2023-04-30T20:23:40.840Z,3.05
2023-04-30T20:26:09.337Z,2.30
2023-04-30T20:28:36.957Z,1.67
2023-04-30T20:31:04.380Z,2.03
2023-04-30T20:33:31.442Z,2.90
2023-04-30T20:36:00.578Z,2.30
2023-04-30T20:38:27.727Z,2.42
2023-04-30T20:40:55.402Z,2.70
2023-04-30T20:43:22.720Z,2.75
2023-04-30T20:45:50.219Z,2.38
2023-04-30T20:48:17.568Z,2.47
2023-04-30T20:50:44.778Z,9.57
2023-04-30T20:53:12.901Z,6.68
2023-04-30T20:55:40.156Z,2.58
2023-04-30T20:58:09.260Z,2.10
2023-04-30T21:00:36.629Z,2.10
2023-04-30T21:03:04.680Z,2.40
2023-04-30T21:05:32.405Z,2.92
2023-04-30T21:08:01.494Z,2.50
2023-04-30T21:10:36.772Z,2.30
2023-04-30T21:15:58.890Z,2.38
2023-04-30T21:18:29.055Z,1.55
2023-04-30T21:21:04.058Z,2.58
2023-04-30T21:23:32.860Z,2.17
2023-04-30T21:26:00.219Z,2.30
2023-04-30T21:28:27.775Z,2.50
2023-04-30T21:30:55.064Z,1.85
2023-04-30T21:33:22.211Z,2.38
2023-04-30T21:35:49.358Z,2.15
2023-04-30T21:38:16.414Z,1.90
2023-04-30T21:40:43.812Z,2.10
2023-04-30T21:43:11.184Z,2.38
2023-04-30T21:45:38.420Z,1.92
2023-04-30T21:48:06.136Z,1.65
2023-04-30T21:50:33.847Z,2.17
2023-04-30T21:53:03.654Z,2.00
2023-04-30T21:55:31.181Z,2.25
2023-04-30T21:57:58.354Z,1.50
2023-04-30T22:00:25.763Z,1.90
2023-04-30T22:02:52.724Z,2.30
2023-04-30T22:05:21.118Z,2.35
2023-04-30T22:07:48.835Z,2.72
2023-04-30T22:10:15.985Z,2.72
2023-04-30T22:12:47.107Z,2.97
2023-04-30T22:15:15.288Z,2.20
2023-04-30T22:17:42.546Z,2.35
2023-04-30T22:20:10.918Z,1.92
2023-04-30T22:22:38.066Z,2.42
2023-04-30T22:25:06.047Z,2.38
2023-04-30T22:27:33.099Z,2.30
2023-04-30T22:30:00.182Z,1.90
2023-04-30T22:32:27.670Z,2.00
2023-04-30T22:34:55.303Z,2.13
2023-04-30T22:37:23.561Z,2.50
2023-04-30T22:39:50.894Z,1.75
2023-04-30T22:42:18.382Z,2.55
2023-04-30T22:44:45.940Z,2.30
2023-04-30T22:47:13.725Z,2.03
2023-04-30T22:49:41.677Z,2.28
2023-04-30T22:52:09.117Z,2.08
2023-04-30T22:54:36.350Z,2.30
2023-04-30T22:57:04.363Z,2.15
2023-04-30T22:59:31.436Z,2.22
2023-04-30T23:01:59.787Z,2.90
2023-04-30T23:04:27.644Z,3.00
2023-04-30T23:06:55.083Z,2.92
2023-04-30T23:09:22.200Z,4.50
2023-04-30T23:11:49.191Z,4.15
2023-04-30T23:14:16.761Z,4.03
2023-04-30T23:16:44.208Z,3.00
2023-04-30T23:19:11.956Z,2.42
2023-04-30T23:21:38.917Z,3.33
2023-04-30T23:24:06.239Z,3.05
2023-04-30T23:26:33.337Z,3.53
2023-04-30T23:29:00.316Z,3.50
2023-04-30T23:31:27.358Z,3.75
2023-04-30T23:33:54.458Z,3.67
2023-04-30T23:36:21.552Z,3.40
2023-04-30T23:38:48.544Z,3.83
2023-04-30T23:41:15.676Z,3.95
2023-04-30T23:43:42.783Z,4.13
2023-04-30T23:46:10.105Z,4.50
2023-04-30T23:48:37.521Z,5.10
2023-04-30T23:51:07.573Z,4.88
2023-04-30T23:53:35.780Z,3.83
2023-04-30T23:56:05.676Z,3.40
2023-04-30T23:58:33.127Z,4.22
